sensor_id;sensor_type;location;lat;lon;timestamp;pressure;altitude;pressure_sealevel;temperature;humidity
71903;BME280;59778;50.310;18.780;2023-09-08T00:11:07;51131.16;;;-142.93;73.92
71903;BME280;59778;50.310;18.780;2023-09-08T00:26:29;51118.78;;;-142.93;73.75
71903;BME280;59778;50.310;18.780;2023-09-08T00:41:50;51122.91;;;-142.93;76.59
71903;BME280;59778;50.310;18.780;2023-09-08T00:57:11;51139.41;;;-142.93;76.86
71903;BME280;59778;50.310;18.780;2023-09-08T01:12:33;51127.03;;;-142.93;78.39
71903;BME280;59778;50.310;18.780;2023-09-08T01:27:59;51155.94;;;-142.93;78.06
71903;BME280;59778;50.310;18.780;2023-09-08T01:43:21;51124.97;;;-142.93;77.14
71903;BME280;59778;50.310;18.780;2023-09-08T01:58:42;51137.34;;;-142.93;77.88
71903;BME280;59778;50.310;18.780;2023-09-08T02:14:03;51143.56;;;-142.93;79.03
71903;BME280;59778;50.310;18.780;2023-09-08T02:29:25;51131.16;;;-142.93;78.03
71903;BME280;59778;50.310;18.780;2023-09-08T02:44:46;51166.28;;;-142.93;77.76
71903;BME280;59778;50.310;18.780;2023-09-08T03:00:07;51120.84;;;-142.93;77.51
71903;BME280;59778;50.310;18.780;2023-09-08T03:15:29;51155.94;;;-142.93;76.40
71903;BME280;59778;50.310;18.780;2023-09-08T03:30:50;51131.16;;;-142.93;78.20
71903;BME280;59778;50.310;18.780;2023-09-08T03:46:11;51162.13;;;-142.93;77.05
71903;BME280;59778;50.310;18.780;2023-09-08T04:01:32;51174.53;;;-142.93;78.95
71903;BME280;59778;50.310;18.780;2023-09-08T04:16:54;51205.50;;;-142.93;77.88
71903;BME280;59778;50.310;18.780;2023-09-08T04:32:15;51205.50;;;-142.93;79.83
71903;BME280;59778;50.310;18.780;2023-09-08T04:47:36;51201.38;;;-142.93;79.15
71903;BME280;59778;50.310;18.780;2023-09-08T05:02:58;51166.28;;;-142.93;79.32
71903;BME280;59778;50.310;18.780;2023-09-08T05:18:19;51164.22;;;-142.93;80.07
71903;BME280;59778;50.310;18.780;2023-09-08T05:33:41;51135.28;;;-142.93;80.85
71903;BME280;59778;50.310;18.780;2023-09-08T05:49:02;51160.06;;;-142.93;80.56
71903;BME280;59778;50.310;18.780;2023-09-08T06:04:24;51137.34;;;-142.93;83.58
71903;BME280;59778;50.310;18.780;2023-09-08T06:19:45;51168.34;;;-142.93;81.62
71903;BME280;59778;50.310;18.780;2023-09-08T06:35:07;51131.16;;;-142.93;78.00
71903;BME280;59778;50.310;18.780;2023-09-08T06:50:28;51133.22;;;-142.93;75.15
71903;BME280;59778;50.310;18.780;2023-09-08T07:05:51;51106.38;;;-142.93;72.97
71903;BME280;59778;50.310;18.780;2023-09-08T07:21:12;51116.69;;;-142.93;70.03
71903;BME280;59778;50.310;18.780;2023-09-08T07:36:35;51106.38;;;-142.93;67.27
71903;BME280;59778;50.310;18.780;2023-09-08T07:51:57;51085.72;;;-142.93;63.81
71903;BME280;59778;50.310;18.780;2023-09-08T08:19:58;99420.84;;;22.39;55.38
71903;BME280;59778;50.310;18.780;2023-09-08T08:35:20;99428.16;;;23.07;51.32
71903;BME280;59778;50.310;18.780;2023-09-08T08:50:42;99419.75;;;23.87;51.33
71903;BME280;59778;50.310;18.780;2023-09-08T09:06:05;99407.19;;;23.98;50.09
71903;BME280;59778;50.310;18.780;2023-09-08T09:21:44;99396.06;;;24.60;49.25
71903;BME280;59778;50.310;18.780;2023-09-08T09:37:08;99387.72;;;24.94;44.97
71903;BME280;59778;50.310;18.780;2023-09-08T09:52:30;99382.88;;;25.23;44.97
71903;BME280;59778;50.310;18.780;2023-09-08T10:07:52;99360.59;;;26.05;42.66
71903;BME280;59778;50.310;18.780;2023-09-08T10:23:27;99360.13;;;26.18;40.35
71903;BME280;59778;50.310;18.780;2023-09-08T10:38:49;99361.41;;;26.58;39.29
71903;BME280;59778;50.310;18.780;2023-09-08T10:54:42;99346.78;;;27.36;37.41
71903;BME280;59778;50.310;18.780;2023-09-08T11:10:04;99333.63;;;27.83;34.15
71903;BME280;59778;50.310;18.780;2023-09-08T11:25:26;99322.09;;;28.02;33.32
71903;BME280;59778;50.310;18.780;2023-09-08T11:40:47;99313.69;;;29.02;30.86
71903;BME280;59778;50.310;18.780;2023-09-08T11:56:08;99311.63;;;29.47;32.13
71903;BME280;59778;50.310;18.780;2023-09-08T12:11:34;99294.63;;;29.79;31.09
71903;BME280;59778;50.310;18.780;2023-09-08T12:27:02;99268.59;;;30.00;28.81
71903;BME280;59778;50.310;18.780;2023-09-08T12:42:24;99265.13;;;29.71;29.54
71903;BME280;59778;50.310;18.780;2023-09-08T12:57:46;99272.34;;;29.62;29.93
71903;BME280;59778;50.310;18.780;2023-09-08T13:13:08;99252.50;;;29.94;30.08
71903;BME280;59778;50.310;18.780;2023-09-08T13:28:30;99248.47;;;30.72;28.16
71903;BME280;59778;50.310;18.780;2023-09-08T13:43:51;99231.44;;;30.13;31.33
71903;BME280;59778;50.310;18.780;2023-09-08T13:59:12;99230.50;;;30.41;31.02
71903;BME280;59778;50.310;18.780;2023-09-08T14:14:34;99209.94;;;30.58;31.22
71903;BME280;59778;50.310;18.780;2023-09-08T14:29:55;99208.22;;;29.63;32.74
71903;BME280;59778;50.310;18.780;2023-09-08T14:45:16;99196.13;;;29.69;32.25
71903;BME280;59778;50.310;18.780;2023-09-08T15:00:41;99187.75;;;29.79;33.10
71903;BME280;59778;50.310;18.780;2023-09-08T15:16:02;99180.53;;;29.40;33.25
71903;BME280;59778;50.310;18.780;2023-09-08T15:31:24;99186.19;;;28.96;34.08
71903;BME280;59778;50.310;18.780;2023-09-08T15:46:45;99177.84;;;27.99;35.59
71903;BME280;59778;50.310;18.780;2023-09-08T16:02:06;99179.94;;;27.47;36.68
71903;BME280;59778;50.310;18.780;2023-09-08T16:17:27;99169.75;;;26.63;39.48
71903;BME280;59778;50.310;18.780;2023-09-08T16:32:49;99160.00;;;25.74;42.71
71903;BME280;59778;50.310;18.780;2023-09-08T16:48:10;99165.94;;;25.08;48.98
71903;BME280;59778;50.310;18.780;2023-09-08T17:03:31;99166.06;;;23.78;52.13
71903;BME280;59778;50.310;18.780;2023-09-08T17:18:53;99176.75;;;22.69;55.44
71903;BME280;59778;50.310;18.780;2023-09-08T17:34:18;99188.19;;;21.57;59.08
71903;BME280;59778;50.310;18.780;2023-09-08T17:49:40;99208.72;;;20.52;62.82
71903;BME280;59778;50.310;18.780;2023-09-08T18:05:02;99196.91;;;19.75;64.34
71903;BME280;59778;50.310;18.780;2023-09-08T18:20:23;99203.81;;;19.53;64.71
71903;BME280;59778;50.310;18.780;2023-09-08T18:35:44;99210.00;;;19.17;65.74
71903;BME280;59778;50.310;18.780;2023-09-08T18:51:06;99200.34;;;18.52;68.80
71903;BME280;59778;50.310;18.780;2023-09-08T19:06:28;99208.59;;;17.94;69.75
71903;BME280;59778;50.310;18.780;2023-09-08T19:21:49;99212.94;;;17.89;69.26
71903;BME280;59778;50.310;18.780;2023-09-08T19:37:20;99218.00;;;17.59;69.36
71903;BME280;59778;50.310;18.780;2023-09-08T19:52:42;99218.91;;;17.39;69.68
71903;BME280;59778;50.310;18.780;2023-09-08T20:08:03;99216.91;;;17.08;70.04
71903;BME280;59778;50.310;18.780;2023-09-08T20:23:25;99216.94;;;16.89;70.47
71903;BME280;59778;50.310;18.780;2023-09-08T20:38:47;99231.13;;;16.63;71.28
71903;BME280;59778;50.310;18.780;2023-09-08T20:54:08;99233.00;;;16.49;71.13
71903;BME280;59778;50.310;18.780;2023-09-08T21:09:36;99233.34;;;16.26;71.58
71903;BME280;59778;50.310;18.780;2023-09-08T21:24:57;99224.41;;;15.99;72.74
71903;BME280;59778;50.310;18.780;2023-09-08T21:40:18;99222.09;;;15.83;73.08
71903;BME280;59778;50.310;18.780;2023-09-08T21:55:39;99215.22;;;15.67;72.81
71903;BME280;59778;50.310;18.780;2023-09-08T22:11:05;99222.88;;;15.42;74.54
71903;BME280;59778;50.310;18.780;2023-09-08T22:26:26;99222.97;;;15.21;74.43
71903;BME280;59778;50.310;18.780;2023-09-08T22:41:47;99219.53;;;14.99;75.67
71903;BME280;59778;50.310;18.780;2023-09-08T22:57:08;99208.97;;;14.91;75.50
71903;BME280;59778;50.310;18.780;2023-09-08T23:12:30;99213.84;;;14.80;75.31
71903;BME280;59778;50.310;18.780;2023-09-08T23:27:51;99191.69;;;14.65;75.66
71903;BME280;59778;50.310;18.780;2023-09-08T23:43:12;99187.63;;;14.48;76.04
71903;BME280;59778;50.310;18.780;2023-09-08T23:58:34;99173.97;;;14.43;76.42
